VEJS/IXW METAR and TAF weather

Enter ICAO airport designator
Station Type Date Time Source
VEJS METAR 2021/04/18 03:00 UTC NOAA

VEJS 180300Z 27007KT 3500 HZ FEW020 SCT025 30/20 Q1011


Station Type Date Time Source
VEJS Decoded METAR 2021/04/18 03:00 UTC NOAA

Jamshedpur, India (VEJS) 22-49N 086-11E 142M
Apr 17, 2021 - 11:00 PM EDT / 2021.04.18 0300 UTC
Wind: from the W (270 degrees) at 8 MPH (7 KT):0
Visibility: 2 mile(s):0
Sky conditions: partly cloudy
Weather: haze
Temperature: 86 F (30 C)
Dew Point: 68 F (20 C)
Relative Humidity: 55%
Pressure (altimeter): 29.85 in. Hg (1011 hPa)
ob: VEJS 180300Z 27007KT 3500 HZ FEW020 SCT025 30/20 Q1011
cycle: 3

Station Type Date Time Source
VEJS TAF 2009/11/01 09:00 UTC NOAA

TAF VEJS 010900Z 0112/0121 36004KT 2500 HZ FEW020 SCT025 SCT100
BECMG 0116/0118 00000KT 2000 HZ FEW018 SCT
BECMG 0119/0121 00000KT 1600 BR

Example: see airport list